createdAt,value
2022-12-31T00:01:26.973Z,52.22
2022-12-31T00:06:32.870Z,50.70
2022-12-31T00:11:37.010Z,50.94
2022-12-31T00:16:41.863Z,50.77
2022-12-31T00:21:46.700Z,51.21
2022-12-31T00:26:50.053Z,51.49
2022-12-31T00:31:53.350Z,49.58
2022-12-31T00:36:58.156Z,51.97
2022-12-31T00:42:01.495Z,50.89
2022-12-31T00:47:04.941Z,50.57
2022-12-31T00:52:09.830Z,50.92
2022-12-31T00:57:13.469Z,50.07
2022-12-31T01:02:16.913Z,50.61
2022-12-31T01:07:21.677Z,50.58
2022-12-31T01:12:25.782Z,51.41
2022-12-31T01:17:29.402Z,50.08
2022-12-31T01:22:34.077Z,50.39
2022-12-31T01:27:37.360Z,51.03
2022-12-31T01:32:40.648Z,52.63
2022-12-31T01:37:45.417Z,52.42
2022-12-31T01:42:55.234Z,53.08
2022-12-31T01:48:00.245Z,55.27
2022-12-31T01:53:06.214Z,54.01
2022-12-31T01:58:12.122Z,52.95
2022-12-31T02:03:15.540Z,52.90
2022-12-31T02:08:20.361Z,52.91
2022-12-31T02:13:23.765Z,52.84
2022-12-31T02:18:32.033Z,50.55
2022-12-31T02:23:57.430Z,51.38
2022-12-31T02:29:20.982Z,53.02
2022-12-31T02:34:29.319Z,53.51
2022-12-31T02:39:33.486Z,52.63
2022-12-31T02:44:38.395Z,52.25
2022-12-31T02:49:49.946Z,52.64
2022-12-31T02:54:58.596Z,51.85
2022-12-31T03:00:21.585Z,52.46
2022-12-31T03:05:29.375Z,51.46
2022-12-31T03:10:32.768Z,51.24
2022-12-31T03:15:36.105Z,50.27
2022-12-31T03:20:59.865Z,50.34
2022-12-31T03:26:03.977Z,51.84
2022-12-31T03:31:08.033Z,49.73
2022-12-31T03:36:14.415Z,50.78
2022-12-31T03:41:17.716Z,50.15
2022-12-31T03:46:21.085Z,50.26
2022-12-31T03:51:25.767Z,49.77
2022-12-31T03:56:29.317Z,49.59
2022-12-31T04:01:32.697Z,50.96
2022-12-31T04:06:37.608Z,52.16
2022-12-31T04:11:40.945Z,51.74
2022-12-31T04:16:44.716Z,52.22
2022-12-31T04:21:50.618Z,51.50
2022-12-31T04:26:53.919Z,51.94
2022-12-31T04:31:57.347Z,52.10
2022-12-31T04:37:02.221Z,53.23
2022-12-31T04:42:05.765Z,52.45
2022-12-31T04:47:09.181Z,51.89
2022-12-31T04:52:13.928Z,51.02
2022-12-31T04:57:17.325Z,54.64
2022-12-31T05:02:20.820Z,55.87
2022-12-31T05:07:25.623Z,56.24
2022-12-31T05:12:28.966Z,53.18
2022-12-31T05:17:32.258Z,53.19
2022-12-31T05:22:37.450Z,51.56
2022-12-31T05:27:40.814Z,51.38
2022-12-31T05:32:44.175Z,49.77
2022-12-31T05:37:49.123Z,49.86
2022-12-31T05:42:52.650Z,49.76
2022-12-31T05:47:55.975Z,49.95
2022-12-31T05:53:00.691Z,49.93
2022-12-31T05:58:04.093Z,50.23
2022-12-31T06:03:07.504Z,49.75
2022-12-31T06:08:12.824Z,49.93
2022-12-31T06:13:17.247Z,48.99
2022-12-31T06:18:20.944Z,48.55
2022-12-31T06:23:25.798Z,47.75
2022-12-31T06:28:29.183Z,47.77
2022-12-31T06:33:32.944Z,48.29
2022-12-31T06:38:39.301Z,48.20
2022-12-31T06:43:43.529Z,48.89
2022-12-31T06:48:46.973Z,48.39
2022-12-31T06:53:52.589Z,48.23
2022-12-31T06:58:56.957Z,47.68
2022-12-31T07:04:11.162Z,47.72
2022-12-31T07:09:23.547Z,47.45
2022-12-31T07:14:33.657Z,48.11
2022-12-31T07:19:46.392Z,49.48
2022-12-31T07:24:51.784Z,49.47
2022-12-31T07:30:03.439Z,55.43
2022-12-31T07:35:13.667Z,51.54
2022-12-31T07:40:21.327Z,49.71
2022-12-31T07:45:28.505Z,52.40
2022-12-31T07:50:32.576Z,59.20
2022-12-31T07:55:37.395Z,56.58
2022-12-31T08:00:40.885Z,56.10
2022-12-31T08:05:50.132Z,53.24
2022-12-31T08:11:04.505Z,53.22
2022-12-31T08:16:12.616Z,51.86
2022-12-31T08:21:23.388Z,53.79
2022-12-31T08:26:36.743Z,51.47
2022-12-31T08:31:47.712Z,54.33
2022-12-31T08:36:54.547Z,51.22
2022-12-31T08:41:59.904Z,51.48
2022-12-31T08:47:10.716Z,50.07
2022-12-31T08:52:17.429Z,50.13
2022-12-31T08:57:27.251Z,49.35
2022-12-31T09:02:53.042Z,48.85
2022-12-31T09:08:07.525Z,49.50
2022-12-31T09:13:18.103Z,49.24
2022-12-31T09:18:22.058Z,49.81
2022-12-31T09:23:25.789Z,51.28
2022-12-31T09:28:38.995Z,51.49
2022-12-31T09:33:50.111Z,52.50
2022-12-31T09:39:00.163Z,53.15
2022-12-31T09:44:52.469Z,54.65
2022-12-31T09:50:32.341Z,54.77
2022-12-31T09:55:38.434Z,54.03
2022-12-31T10:00:52.311Z,54.20
2022-12-31T10:06:12.917Z,54.16
2022-12-31T10:11:20.802Z,52.71
2022-12-31T10:16:45.278Z,51.50
2022-12-31T10:21:55.932Z,53.72
2022-12-31T10:27:08.225Z,52.27
2022-12-31T10:32:20.139Z,50.22
2022-12-31T10:37:26.056Z,48.73
2022-12-31T10:43:00.838Z,48.66
2022-12-31T10:48:37.495Z,50.04
2022-12-31T10:53:51.268Z,48.54
2022-12-31T10:59:28.519Z,47.75
2022-12-31T11:05:08.168Z,49.48
2022-12-31T11:10:36.899Z,46.66
2022-12-31T11:15:55.444Z,49.13
2022-12-31T11:21:28.453Z,48.17
2022-12-31T11:26:40.291Z,46.12
2022-12-31T11:31:53.120Z,47.48
2022-12-31T11:37:11.973Z,49.09
2022-12-31T11:42:21.960Z,50.29
2022-12-31T11:48:03.879Z,50.80
2022-12-31T11:53:23.936Z,49.27
2022-12-31T11:58:28.618Z,47.78
2022-12-31T12:03:32.872Z,47.87
2022-12-31T12:08:37.985Z,50.03
2022-12-31T12:13:41.614Z,49.85
2022-12-31T12:18:46.523Z,49.34
2022-12-31T12:23:59.321Z,47.69
2022-12-31T12:29:10.358Z,48.66
2022-12-31T12:34:24.433Z,47.08
2022-12-31T12:39:31.273Z,47.65
2022-12-31T12:44:35.712Z,47.99
2022-12-31T12:49:40.885Z,46.44
2022-12-31T12:54:58.189Z,46.03
2022-12-31T13:00:10.817Z,44.83
2022-12-31T13:05:27.666Z,44.63
2022-12-31T13:10:48.896Z,44.74
2022-12-31T13:15:57.703Z,46.28
2022-12-31T13:21:04.701Z,46.19
2022-12-31T13:26:29.892Z,44.36
2022-12-31T13:31:35.621Z,45.08
2022-12-31T13:36:41.503Z,47.73
2022-12-31T13:41:49.710Z,46.74
2022-12-31T13:46:58.903Z,48.10
2022-12-31T13:57:18.733Z,46.11
2022-12-31T14:02:32.747Z,45.71
2022-12-31T14:07:45.293Z,46.24
2022-12-31T14:12:54.790Z,46.94
2022-12-31T14:18:03.064Z,46.83
2022-12-31T14:23:12.784Z,44.55
2022-12-31T14:28:20.428Z,44.58
2022-12-31T14:33:32.665Z,45.81
2022-12-31T14:38:51.507Z,45.94
2022-12-31T14:44:03.380Z,46.29
2022-12-31T14:49:17.300Z,45.90
2022-12-31T14:54:29.224Z,46.15
2022-12-31T14:59:40.110Z,48.45
2022-12-31T15:04:46.094Z,45.81
2022-12-31T15:10:00.851Z,47.80
2022-12-31T15:15:15.629Z,47.13
2022-12-31T15:20:29.901Z,47.58
2022-12-31T15:25:40.740Z,48.44
2022-12-31T15:30:47.814Z,47.28
2022-12-31T15:35:53.379Z,46.84
2022-12-31T15:40:56.770Z,45.15
2022-12-31T15:46:02.068Z,44.64
2022-12-31T15:51:06.343Z,45.48
2022-12-31T15:56:17.138Z,45.94
2022-12-31T16:01:23.173Z,44.41
2022-12-31T16:06:28.557Z,44.92
2022-12-31T16:11:32.242Z,44.96
2022-12-31T16:16:37.028Z,44.69
2022-12-31T16:21:40.488Z,44.64
2022-12-31T16:26:45.877Z,43.41
2022-12-31T16:31:53.095Z,43.42
2022-12-31T16:36:58.672Z,44.85
2022-12-31T16:42:19.886Z,42.93
2022-12-31T16:47:26.218Z,43.89
2022-12-31T16:52:33.319Z,42.28
2022-12-31T16:57:36.895Z,42.12
2022-12-31T17:02:43.855Z,43.35
2022-12-31T17:07:47.439Z,43.06
2022-12-31T17:18:21.811Z,43.30
2022-12-31T17:23:26.887Z,42.82
2022-12-31T17:28:33.293Z,42.59
2022-12-31T17:33:38.086Z,42.48
2022-12-31T17:38:41.403Z,42.29
2022-12-31T17:43:44.807Z,41.86
2022-12-31T17:48:53.085Z,42.38
2022-12-31T17:53:56.483Z,42.65
2022-12-31T17:59:00.401Z,42.11
2022-12-31T18:04:07.244Z,42.54
2022-12-31T18:09:10.828Z,42.27
2022-12-31T18:14:15.407Z,40.60
2022-12-31T18:19:45.697Z,41.23
2022-12-31T18:24:43.601Z,41.15
2022-12-31T18:29:47.796Z,41.20
2022-12-31T18:34:52.823Z,41.88
2022-12-31T18:39:56.408Z,40.33
2022-12-31T18:44:59.772Z,42.07
2022-12-31T18:50:04.909Z,41.56
2022-12-31T18:55:22.306Z,39.68
2022-12-31T19:00:25.759Z,40.35
2022-12-31T19:05:32.355Z,40.06
2022-12-31T19:10:35.935Z,40.06
2022-12-31T19:15:42.628Z,40.38
2022-12-31T19:20:47.520Z,40.44
2022-12-31T19:25:51.339Z,40.14
2022-12-31T19:30:55.146Z,40.38
2022-12-31T19:35:59.972Z,41.12
2022-12-31T19:41:03.487Z,40.06
2022-12-31T19:46:06.986Z,41.39
2022-12-31T19:51:13.299Z,41.57
2022-12-31T19:56:18.488Z,41.42
2022-12-31T20:01:23.904Z,41.76
2022-12-31T20:06:28.823Z,42.37
2022-12-31T20:11:32.686Z,41.57
2022-12-31T20:16:36.174Z,40.25
2022-12-31T20:21:41.914Z,40.50
2022-12-31T20:26:45.317Z,39.61
2022-12-31T20:31:48.700Z,40.23
2022-12-31T20:36:53.476Z,39.55
2022-12-31T20:41:56.902Z,39.03
2022-12-31T20:47:00.280Z,39.51
2022-12-31T20:52:05.906Z,39.70
2022-12-31T20:57:09.377Z,39.69
2022-12-31T21:02:22.856Z,38.98
2022-12-31T21:07:31.235Z,38.41
2022-12-31T21:12:53.152Z,38.69
2022-12-31T21:17:56.594Z,38.45
2022-12-31T21:23:01.334Z,38.46
2022-12-31T21:28:04.814Z,38.33
2022-12-31T21:33:08.643Z,36.85
2022-12-31T21:38:13.472Z,36.67
2022-12-31T21:43:17.156Z,36.64
2022-12-31T21:48:24.934Z,36.38
2022-12-31T21:53:36.710Z,36.76
2022-12-31T21:58:42.273Z,35.72
2022-12-31T22:03:45.899Z,36.23
2022-12-31T22:08:52.156Z,35.21
2022-12-31T22:13:56.649Z,34.32
2022-12-31T22:18:59.998Z,34.73
2022-12-31T22:24:05.412Z,33.64
2022-12-31T22:29:10.190Z,33.02
2022-12-31T22:34:13.763Z,33.14
2022-12-31T22:39:44.019Z,33.32
2022-12-31T22:44:42.308Z,32.90
2022-12-31T22:49:45.707Z,33.40
2022-12-31T22:54:50.704Z,33.30
2022-12-31T22:59:54.056Z,33.29
2022-12-31T23:05:15.354Z,33.41
2022-12-31T23:10:38.456Z,33.86
2022-12-31T23:16:03.121Z,33.86
2022-12-31T23:21:28.120Z,33.29
2022-12-31T23:26:32.926Z,33.93
2022-12-31T23:31:37.270Z,34.06
2022-12-31T23:36:40.707Z,33.65
2022-12-31T23:41:45.450Z,33.06
2022-12-31T23:46:48.806Z,33.33
2022-12-31T23:51:52.428Z,32.76
2022-12-31T23:56:57.174Z,33.19
